createdAt,value
2023-03-11T00:00:48.680Z,99.88
2023-03-11T00:04:27.979Z,100.00
2023-03-11T00:07:55.384Z,99.93
2023-03-11T00:11:22.590Z,100.00
2023-03-11T00:14:49.736Z,100.00
2023-03-11T00:18:17.395Z,99.97
2023-03-11T00:21:44.701Z,100.00
2023-03-11T00:25:12.857Z,100.00
2023-03-11T00:28:39.932Z,100.00
2023-03-11T00:32:08.749Z,100.00
2023-03-11T00:35:38.125Z,100.00
2023-03-11T00:39:07.611Z,100.00
2023-03-11T00:42:34.810Z,100.00
2023-03-11T00:46:01.954Z,100.00
2023-03-11T00:49:29.395Z,100.00
2023-03-11T00:52:56.662Z,100.00
2023-03-11T00:56:24.220Z,100.00
2023-03-11T00:59:51.333Z,100.00
2023-03-11T01:03:18.516Z,100.00
2023-03-11T01:06:46.388Z,100.00
2023-03-11T01:10:15.750Z,100.00
2023-03-11T01:13:42.932Z,100.00
2023-03-11T01:17:09.942Z,100.00
2023-03-11T01:20:38.267Z,100.00
2023-03-11T01:24:05.900Z,100.00
2023-03-11T01:27:33.102Z,100.00
2023-03-11T01:31:00.181Z,100.00
2023-03-11T01:34:27.715Z,100.00
2023-03-11T01:37:54.809Z,100.00
2023-03-11T01:41:21.925Z,100.00
2023-03-11T01:44:48.972Z,100.00
2023-03-11T01:48:16.955Z,100.00
2023-03-11T01:51:47.307Z,100.00
2023-03-11T01:55:16.492Z,100.00
2023-03-11T01:58:49.082Z,100.00
2023-03-11T02:02:22.479Z,100.00
2023-03-11T02:05:50.783Z,100.00
2023-03-11T02:09:18.029Z,100.00
2023-03-11T02:12:46.817Z,100.00
2023-03-11T02:16:22.211Z,100.00
2023-03-11T02:20:05.212Z,100.00
2023-03-11T02:23:44.343Z,100.00
2023-03-11T02:27:16.278Z,100.00
2023-03-11T02:30:46.908Z,100.00
2023-03-11T02:34:23.019Z,100.00
2023-03-11T02:37:52.182Z,100.00
2023-03-11T02:41:19.792Z,100.00
2023-03-11T02:44:51.454Z,100.00
2023-03-11T02:48:19.922Z,100.00
2023-03-11T02:51:47.062Z,100.00
2023-03-11T02:55:16.086Z,100.00
2023-03-11T02:58:43.123Z,100.00
2023-03-11T03:02:10.509Z,100.00
2023-03-11T03:05:39.418Z,100.00
2023-03-11T03:09:07.179Z,99.38
2023-03-11T03:12:34.301Z,97.35
2023-03-11T03:16:01.704Z,95.79
2023-03-11T03:19:29.277Z,95.59
2023-03-11T03:22:56.553Z,96.37
2023-03-11T03:26:26.932Z,96.54
2023-03-11T03:29:54.377Z,96.87
2023-03-11T03:33:21.579Z,96.80
2023-03-11T03:36:48.927Z,97.41
2023-03-11T03:40:18.047Z,97.82
2023-03-11T03:43:45.416Z,97.85
2023-03-11T03:47:13.747Z,98.67
2023-03-11T03:50:42.310Z,99.23
2023-03-11T03:54:11.996Z,99.65
2023-03-11T03:57:39.087Z,99.90
2023-03-11T04:01:08.290Z,100.00
2023-03-11T04:04:36.410Z,100.00
2023-03-11T04:08:03.971Z,100.00
2023-03-11T04:11:32.853Z,100.00
2023-03-11T04:15:00.703Z,100.00
2023-03-11T04:18:28.444Z,100.00
2023-03-11T04:21:55.501Z,100.00
2023-03-11T04:25:23.780Z,100.00
2023-03-11T04:28:51.240Z,100.00
2023-03-11T04:32:19.000Z,100.00
2023-03-11T04:35:46.731Z,100.00
2023-03-11T04:39:15.861Z,100.00
2023-03-11T04:42:42.281Z,100.00
2023-03-11T04:46:09.464Z,100.00
2023-03-11T04:49:37.601Z,100.00
2023-03-11T04:53:05.064Z,100.00
2023-03-11T04:56:32.204Z,100.00
2023-03-11T05:00:00.162Z,100.00
2023-03-11T05:03:28.631Z,100.00
2023-03-11T05:06:55.950Z,100.00
2023-03-11T05:10:24.087Z,100.00
2023-03-11T05:13:54.339Z,100.00
2023-03-11T05:17:22.648Z,100.00
2023-03-11T05:20:50.546Z,100.00
2023-03-11T05:24:18.743Z,100.00
2023-03-11T05:27:46.389Z,100.00
2023-03-11T05:31:14.019Z,100.00
2023-03-11T05:34:42.131Z,100.00
2023-03-11T05:38:09.691Z,100.00
2023-03-11T05:41:37.190Z,100.00
2023-03-11T05:45:04.531Z,100.00
2023-03-11T05:48:32.609Z,100.00
2023-03-11T05:52:00.368Z,100.00
2023-03-11T05:55:28.569Z,100.00
2023-03-11T05:58:58.183Z,100.00
2023-03-11T06:02:26.367Z,100.00
2023-03-11T06:05:55.695Z,100.00
2023-03-11T06:09:22.980Z,100.00
2023-03-11T06:12:51.220Z,100.00
2023-03-11T06:16:26.279Z,100.00
2023-03-11T06:19:55.058Z,100.00
2023-03-11T06:23:22.717Z,100.00
2023-03-11T06:26:54.267Z,100.00
2023-03-11T06:30:25.075Z,100.00
2023-03-11T06:33:59.379Z,100.00
2023-03-11T06:37:27.688Z,100.00
2023-03-11T06:40:54.997Z,100.00
2023-03-11T06:44:22.517Z,100.00
2023-03-11T06:47:49.830Z,100.00
2023-03-11T06:51:17.242Z,100.00
2023-03-11T06:54:44.718Z,100.00
2023-03-11T06:58:12.637Z,100.00
2023-03-11T07:01:39.907Z,100.00
2023-03-11T07:05:09.385Z,100.00
2023-03-11T07:08:36.513Z,100.00
2023-03-11T07:12:05.782Z,100.00
2023-03-11T07:15:35.650Z,100.00
2023-03-11T07:19:03.414Z,100.00
2023-03-11T07:22:31.345Z,100.00
2023-03-11T07:25:58.609Z,100.00
2023-03-11T07:29:25.772Z,100.00
2023-03-11T07:32:52.784Z,100.00
2023-03-11T07:36:22.674Z,100.00
2023-03-11T07:39:49.807Z,100.00
2023-03-11T07:43:17.392Z,100.00
2023-03-11T07:46:45.168Z,100.00
2023-03-11T07:50:13.775Z,100.00
2023-03-11T07:53:41.675Z,100.00
2023-03-11T07:57:13.368Z,100.00
2023-03-11T08:00:40.529Z,100.00
2023-03-11T08:04:12.933Z,100.00
2023-03-11T08:07:41.192Z,100.00
2023-03-11T08:11:08.314Z,100.00
2023-03-11T08:14:35.322Z,100.00
2023-03-11T08:18:02.531Z,100.00
2023-03-11T08:21:32.555Z,100.00
2023-03-11T08:24:59.797Z,100.00
2023-03-11T08:28:27.135Z,100.00
2023-03-11T08:31:54.538Z,100.00
2023-03-11T08:35:22.023Z,100.00
2023-03-11T08:38:49.799Z,100.00
2023-03-11T08:42:17.186Z,100.00
2023-03-11T08:45:44.848Z,100.00
2023-03-11T08:49:12.081Z,100.00
2023-03-11T08:52:39.091Z,100.00
2023-03-11T08:56:06.589Z,100.00
2023-03-11T08:59:33.825Z,100.00
2023-03-11T09:03:00.956Z,100.00
2023-03-11T09:06:30.647Z,100.00
2023-03-11T09:09:57.850Z,100.00
2023-03-11T09:13:25.736Z,100.00
2023-03-11T09:16:52.758Z,100.00
2023-03-11T09:20:20.337Z,100.00
2023-03-11T09:23:47.827Z,100.00
2023-03-11T09:27:15.888Z,100.00
2023-03-11T09:30:43.084Z,100.00
2023-03-11T09:34:11.426Z,100.00
2023-03-11T09:37:38.591Z,100.00
2023-03-11T09:41:17.053Z,100.00
2023-03-11T09:44:47.062Z,100.00
2023-03-11T09:48:26.220Z,100.00
2023-03-11T09:51:59.962Z,100.00
2023-03-11T09:55:42.153Z,100.00
2023-03-11T09:59:15.470Z,100.00
2023-03-11T10:02:43.028Z,99.96
2023-03-11T10:06:19.077Z,99.93
2023-03-11T10:09:52.206Z,99.54
2023-03-11T10:13:27.118Z,99.17
2023-03-11T10:17:01.981Z,98.55
2023-03-11T10:20:35.797Z,98.55
2023-03-11T10:24:18.527Z,97.92
2023-03-11T10:27:51.517Z,98.74
2023-03-11T10:31:26.033Z,99.40
2023-03-11T10:34:58.644Z,99.94
2023-03-11T10:38:32.462Z,100.00
2023-03-11T10:42:03.361Z,100.00
2023-03-11T10:45:35.101Z,99.94
2023-03-11T10:49:02.456Z,99.13
2023-03-11T10:52:29.630Z,98.31
2023-03-11T10:55:58.820Z,97.64
2023-03-11T10:59:29.980Z,97.44
2023-03-11T11:02:59.886Z,97.46
2023-03-11T11:06:29.710Z,97.78
2023-03-11T11:10:18.578Z,97.24
2023-03-11T11:13:59.452Z,96.53
2023-03-11T11:17:31.290Z,96.54
2023-03-11T11:21:02.581Z,95.95
2023-03-11T11:24:30.809Z,95.34
2023-03-11T11:28:00.110Z,94.91
2023-03-11T11:31:28.700Z,95.34
2023-03-11T11:35:01.625Z,95.36
2023-03-11T11:38:31.526Z,95.10
2023-03-11T11:42:00.593Z,94.93
2023-03-11T11:45:37.067Z,94.56
2023-03-11T11:49:18.552Z,95.08
2023-03-11T11:52:52.521Z,94.92
2023-03-11T11:56:19.731Z,94.62
2023-03-11T11:59:48.098Z,94.57
2023-03-11T12:03:46.842Z,94.42
2023-03-11T12:07:26.132Z,94.04
2023-03-11T12:10:58.649Z,94.21
2023-03-11T12:14:33.279Z,95.34
2023-03-11T12:18:06.412Z,95.46
2023-03-11T12:21:51.246Z,94.66
2023-03-11T12:25:28.638Z,93.14
2023-03-11T12:29:01.218Z,92.61
2023-03-11T12:32:35.895Z,92.19
2023-03-11T12:36:03.983Z,89.43
2023-03-11T12:39:34.068Z,88.67
2023-03-11T12:43:01.840Z,87.31
2023-03-11T12:47:05.251Z,87.97
2023-03-11T12:50:43.699Z,87.47
2023-03-11T12:54:32.246Z,87.24
2023-03-11T12:58:07.331Z,86.77
2023-03-11T13:01:58.641Z,88.03
2023-03-11T13:05:31.716Z,86.77
2023-03-11T13:09:00.755Z,87.37
2023-03-11T13:12:45.799Z,86.29
2023-03-11T13:16:39.943Z,84.85
2023-03-11T13:20:56.241Z,86.16
2023-03-11T13:24:50.212Z,85.39
2023-03-11T13:28:35.450Z,84.47
2023-03-11T13:32:26.484Z,85.28
2023-03-11T13:36:08.661Z,84.27
2023-03-11T13:39:55.451Z,83.57
2023-03-11T13:43:24.590Z,80.21
2023-03-11T13:46:54.592Z,78.37
2023-03-11T13:50:25.644Z,78.41
2023-03-11T13:53:58.848Z,78.25
2023-03-11T13:57:32.004Z,77.24
2023-03-11T14:01:01.309Z,76.68
2023-03-11T14:04:30.998Z,76.95
2023-03-11T14:07:56.366Z,76.81
2023-03-11T14:11:29.178Z,77.03
2023-03-11T14:15:02.327Z,75.54
2023-03-11T14:18:32.826Z,75.23
2023-03-11T14:22:00.010Z,73.37
2023-03-11T14:25:31.106Z,70.00
2023-03-11T14:29:00.085Z,72.94
2023-03-11T14:32:30.988Z,73.67
2023-03-11T14:36:01.193Z,74.80
2023-03-11T14:39:31.114Z,74.86
2023-03-11T14:43:00.184Z,75.75
2023-03-11T14:46:30.981Z,73.49
2023-03-11T14:49:59.228Z,75.23
2023-03-11T14:53:29.886Z,74.99
2023-03-11T14:57:01.090Z,74.50
2023-03-11T15:00:34.898Z,74.96
2023-03-11T15:04:10.230Z,74.70
2023-03-11T15:07:40.150Z,74.53
2023-03-11T15:11:24.355Z,75.02
2023-03-11T15:14:54.660Z,75.12
2023-03-11T15:18:33.419Z,76.17
2023-03-11T15:22:03.656Z,76.38
2023-03-11T15:25:34.604Z,76.45
2023-03-11T15:29:05.923Z,76.57
2023-03-11T15:32:43.366Z,77.72
2023-03-11T15:36:31.865Z,78.74
2023-03-11T15:40:13.588Z,79.38
2023-03-11T15:43:48.362Z,79.70
2023-03-11T15:47:18.261Z,80.24
2023-03-11T15:50:53.722Z,80.67
2023-03-11T15:54:21.564Z,80.95
2023-03-11T15:57:49.602Z,80.82
2023-03-11T16:01:18.430Z,80.73
2023-03-11T16:04:45.834Z,81.10
2023-03-11T16:08:13.252Z,81.32
2023-03-11T16:11:41.861Z,81.49
2023-03-11T16:15:19.460Z,82.00
2023-03-11T16:18:46.527Z,82.34
2023-03-11T16:22:20.093Z,82.44
2023-03-11T16:25:48.085Z,82.44
2023-03-11T16:29:19.669Z,82.54
2023-03-11T16:32:46.866Z,82.52
2023-03-11T16:36:14.381Z,82.79
2023-03-11T16:39:41.733Z,82.93
2023-03-11T16:43:12.659Z,83.01
2023-03-11T16:46:39.868Z,83.16
2023-03-11T16:50:08.991Z,83.61
2023-03-11T16:53:36.183Z,83.45
2023-03-11T16:57:04.091Z,83.45
2023-03-11T17:00:31.962Z,83.91
2023-03-11T17:03:59.789Z,84.18
2023-03-11T17:07:28.312Z,84.22
2023-03-11T17:10:55.724Z,84.23
2023-03-11T17:14:24.629Z,84.45
2023-03-11T17:17:52.455Z,84.40
2023-03-11T17:21:20.418Z,84.70
2023-03-11T17:24:47.894Z,85.05
2023-03-11T17:28:15.867Z,85.20
2023-03-11T17:31:43.653Z,85.62
2023-03-11T17:35:13.460Z,85.70
2023-03-11T17:38:44.960Z,85.96
2023-03-11T17:42:13.300Z,85.86
2023-03-11T17:45:43.007Z,85.82
2023-03-11T17:49:16.659Z,86.01
2023-03-11T17:52:44.450Z,85.96
2023-03-11T17:56:13.399Z,85.99
2023-03-11T17:59:40.634Z,86.24
2023-03-11T18:03:07.787Z,86.33
2023-03-11T18:06:35.634Z,86.40
2023-03-11T18:10:02.729Z,86.53
2023-03-11T18:13:30.383Z,87.11
2023-03-11T18:16:57.448Z,87.33
2023-03-11T18:20:25.207Z,87.60
2023-03-11T18:23:52.995Z,87.87
2023-03-11T18:27:20.085Z,88.21
2023-03-11T18:30:47.105Z,88.36
2023-03-11T18:34:14.977Z,88.66
2023-03-11T18:37:42.198Z,88.88
2023-03-11T18:41:09.971Z,89.17
2023-03-11T18:44:37.341Z,89.35
2023-03-11T18:48:04.632Z,89.64
2023-03-11T18:51:47.129Z,89.82
2023-03-11T18:55:14.530Z,89.95
2023-03-11T18:58:42.357Z,89.92
2023-03-11T19:02:11.751Z,90.19
2023-03-11T19:05:37.175Z,90.30
2023-03-11T19:09:06.763Z,90.49
2023-03-11T19:12:34.557Z,90.66
2023-03-11T19:16:03.878Z,90.84
2023-03-11T19:19:31.754Z,90.99
2023-03-11T19:22:58.933Z,91.06
2023-03-11T19:26:41.770Z,91.17
2023-03-11T19:30:14.062Z,91.26
2023-03-11T19:33:43.053Z,91.31
2023-03-11T19:37:10.315Z,91.39
2023-03-11T19:40:37.374Z,91.54
2023-03-11T19:44:04.609Z,91.65
2023-03-11T19:47:32.591Z,91.75
2023-03-11T19:50:59.788Z,91.88
2023-03-11T19:54:27.093Z,92.20
2023-03-11T19:57:54.253Z,92.21
2023-03-11T20:01:22.437Z,92.29
2023-03-11T20:04:49.736Z,92.19
2023-03-11T20:08:20.010Z,92.32
2023-03-11T20:11:48.198Z,92.31
2023-03-11T20:15:15.827Z,92.20
2023-03-11T20:18:42.998Z,91.96
2023-03-11T20:22:10.132Z,92.02
2023-03-11T20:25:38.672Z,91.95
2023-03-11T20:29:06.438Z,91.85
2023-03-11T20:32:33.699Z,91.89
2023-03-11T20:36:08.410Z,91.80
2023-03-11T20:39:35.692Z,91.70
2023-03-11T20:43:03.467Z,91.63
2023-03-11T20:46:31.311Z,91.76
2023-03-11T20:49:58.447Z,91.56
2023-03-11T20:53:26.462Z,91.68
2023-03-11T20:56:53.612Z,91.66
2023-03-11T21:00:22.315Z,91.62
2023-03-11T21:03:50.158Z,91.64
2023-03-11T21:07:17.374Z,91.55
2023-03-11T21:10:44.588Z,91.53
2023-03-11T21:14:12.422Z,91.48
2023-03-11T21:17:40.222Z,91.69
2023-03-11T21:21:11.741Z,91.48
2023-03-11T21:24:39.095Z,91.71
2023-03-11T21:28:06.606Z,91.67
2023-03-11T21:31:34.475Z,91.55
2023-03-11T21:35:02.512Z,91.46
2023-03-11T21:38:30.838Z,91.42
2023-03-11T21:41:58.255Z,91.31
2023-03-11T21:45:25.750Z,91.43
2023-03-11T21:48:53.241Z,91.38
2023-03-11T21:52:20.796Z,91.36
2023-03-11T21:55:48.396Z,91.22
2023-03-11T21:59:15.780Z,91.05
2023-03-11T22:02:42.934Z,91.11
2023-03-11T22:06:13.934Z,91.08
2023-03-11T22:09:41.350Z,91.15
2023-03-11T22:13:09.407Z,91.12
2023-03-11T22:16:36.713Z,91.17
2023-03-11T22:20:05.660Z,91.29
2023-03-11T22:23:33.509Z,91.20
2023-03-11T22:27:00.594Z,91.28
2023-03-11T22:30:28.283Z,91.39
2023-03-11T22:33:55.620Z,91.30
2023-03-11T22:37:22.817Z,91.36
2023-03-11T22:40:50.495Z,91.29
2023-03-11T22:44:17.686Z,91.38
2023-03-11T22:47:44.844Z,91.49
2023-03-11T22:51:11.873Z,91.08
2023-03-11T22:54:40.655Z,91.05
2023-03-11T22:58:07.744Z,90.91
2023-03-11T23:01:34.859Z,91.03
2023-03-11T23:05:02.160Z,90.81
2023-03-11T23:08:29.648Z,90.95
2023-03-11T23:11:56.956Z,91.04
2023-03-11T23:15:24.197Z,91.14
2023-03-11T23:18:54.536Z,91.19
2023-03-11T23:22:21.534Z,91.32
2023-03-11T23:25:48.529Z,91.16
2023-03-11T23:29:15.843Z,91.18
2023-03-11T23:32:42.961Z,91.42
2023-03-11T23:36:13.156Z,91.51
2023-03-11T23:39:40.290Z,91.57
2023-03-11T23:43:07.612Z,91.61
2023-03-11T23:46:34.862Z,91.70
2023-03-11T23:50:02.087Z,91.76
2023-03-11T23:53:29.779Z,91.93
2023-03-11T23:56:57.001Z,92.05
